Bridgewater, CT (06752)

2:57 AM EDT on July 27, 2016 (GMT -0400)
Pointe at Barkwood Falls | | Change Station

Elev 315 ft 41.50 °N, 73.38 °W | Updated 15 seconds ago

Clear
Clear
65.3 °F
Feels Like 65.3 °F
N
0.0
Wind Variable Wind from North
Gusts 0.0 mph

Today
High -- | Low -- °F
--% Chance of Precip.
Yesterday
High -- | Low -- °F
Precip. -- in
Pressure 29.95 in
Visibility 10.0 miles
Clouds Clear
Dew Point 65 °F
Humidity 99%
Rainfall 0.00 in
Snow Depth Not available.
5:43 AM 8:15 PM
Last Quarter, 46% visible
METAR KDXR 270653Z AUTO 22003KT 10SM CLR 18/16 A2996 RMK AO2 SLP140 T01780161
Pressure 29.95 in
Visibility 10.0 miles
Clouds Clear
Dew Point 65 °F
Humidity 99%
Rainfall 0.00 in
Snow Depth Not available.
5:43 AM 8:15 PM
Last Quarter, 46% visible
METAR KDXR 270653Z AUTO 22003KT 10SM CLR 18/16 A2996 RMK AO2 SLP140 T01780161

10-Day Weather Forecast

Almanac

Astronomy

Jul. 27, 2016 Rise Set
Actual Time
Civil Twilight
Nautical Twilight
Astronomical Twilight
Moon
Length of Visible Light
Length of Day
Tomorrow will be .
, % of the Moon is Illuminated

Today's Extremes

State Highs State Lows

Community

WunderPhotos

Upload Photos

1,927,818 photos uploaded!

WunderBlog® & News

Nearby

Air Quality

  Air Quality AQ Index Pollutant
Not available.

Snow Depth

Station Depth Elevation

Earthquake Activity

City Distance Mag. Time & Date
Minimum magnitude displayed is 2.5.

Coastal Water Temperatures

Place Temperature

Stations

Nearby Weather Stations

Station Location Temp. Windchill Dew Point Humidity Wind Precip. Elev Updated Type
                   

Watches & Warnings

There are currently no watches in effect.